PGRO/ROP METAR and TAF weather

Enter ICAO airport designator
Station Type Date Time Source
PGRO METAR 2020/11/28 20:21 UTC NOAA

PGRO 282021Z 09010KT 7SM SCT015 BKN110 26/21 A2978 RMK FIRST


Station Type Date Time Source
PGRO Decoded METAR 2020/11/28 20:21 UTC NOAA

Rota Island, N. Mariana Is, Rota International Airport, GU, United States (PGRO) 14-11N 145-15E
Nov 28, 2020 - 03:21 PM EST / 2020.11.28 2021 UTC
Wind: from the E (090 degrees) at 12 MPH (10 KT):0
Visibility: 7 mile(s):0
Sky conditions: mostly cloudy
Temperature: 78 F (26 C)
Dew Point: 69 F (21 C)
Relative Humidity: 73%
Pressure (altimeter): 29.78 in. Hg (1008 hPa)
ob: PGRO 282021Z 09010KT 7SM SCT015 BKN110 26/21 A2978 RMK FIRST
cycle: 20

Station Type Date Time Source
PGRO TAF 2020/11/28 06:40 UTC NOAA

TAF PGRO 280537Z 2806/2906 10010KT P6SM VCSH SCT018 BKN080 BKN110
TEMPO 2806/2809 BKN018

Example: see airport list